sensor_id;sensor_type;location;lat;lon;timestamp;pressure;altitude;pressure_sealevel;temperature;humidity
13968;BME280;39536;52.198;9.920;2023-04-21T00:00:12;100894.59;;;8.36;100.00
13968;BME280;39536;52.198;9.920;2023-04-21T00:02:39;100898.22;;;8.27;100.00
13968;BME280;39536;52.198;9.920;2023-04-21T00:05:07;100894.88;;;8.21;100.00
13968;BME280;39536;52.198;9.920;2023-04-21T00:07:34;100888.78;;;8.22;100.00
13968;BME280;39536;52.198;9.920;2023-04-21T00:10:04;100888.91;;;8.16;100.00
13968;BME280;39536;52.198;9.920;2023-04-21T00:12:31;100890.63;;;8.17;100.00
13968;BME280;39536;52.198;9.920;2023-04-21T00:14:57;100890.69;;;8.14;100.00
13968;BME280;39536;52.198;9.920;2023-04-21T00:17:24;100888.03;;;8.17;100.00
13968;BME280;39536;52.198;9.920;2023-04-21T00:19:50;100890.69;;;8.12;100.00
13968;BME280;39536;52.198;9.920;2023-04-21T00:22:17;100882.91;;;8.14;100.00
13968;BME280;39536;52.198;9.920;2023-04-21T00:24:43;100878.56;;;8.13;100.00
13968;BME280;39536;52.198;9.920;2023-04-21T00:27:11;100880.25;;;8.15;100.00
13968;BME280;39536;52.198;9.920;2023-04-21T00:29:39;100872.47;;;8.15;100.00
13968;BME280;39536;52.198;9.920;2023-04-21T00:32:06;100865.53;;;8.17;100.00
13968;BME280;39536;52.198;9.920;2023-04-21T00:34:34;100853.41;;;8.18;100.00
13968;BME280;39536;52.198;9.920;2023-04-21T00:37:00;100855.16;;;8.16;100.00
13968;BME280;39536;52.198;9.920;2023-04-21T00:39:27;100845.72;;;8.13;100.00
13968;BME280;39536;52.198;9.920;2023-04-21T00:41:53;100847.53;;;8.06;100.00
13968;BME280;39536;52.198;9.920;2023-04-21T00:44:21;100856.16;;;8.08;100.00
13968;BME280;39536;52.198;9.920;2023-04-21T00:46:47;100856.31;;;8.01;100.00
13968;BME280;39536;52.198;9.920;2023-04-21T00:49:14;100846.78;;;8.01;100.00
13968;BME280;39536;52.198;9.920;2023-04-21T00:51:40;100847.59;;;8.03;100.00
13968;BME280;39536;52.198;9.920;2023-04-21T00:54:08;100846.69;;;8.07;100.00
13968;BME280;39536;52.198;9.920;2023-04-21T00:56:36;100835.47;;;8.05;100.00
13968;BME280;39536;52.198;9.920;2023-04-21T00:59:03;100840.75;;;8.01;100.00
13968;BME280;39536;52.198;9.920;2023-04-21T01:01:31;100834.72;;;7.97;100.00
13968;BME280;39536;52.198;9.920;2023-04-21T01:03:59;100840.00;;;7.91;100.00
13968;BME280;39536;52.198;9.920;2023-04-21T01:06:27;100835.81;;;7.84;100.00
13968;BME280;39536;52.198;9.920;2023-04-21T01:08:54;100832.38;;;7.83;100.00
13968;BME280;39536;52.198;9.920;2023-04-21T01:11:20;100840.25;;;7.79;100.00
13968;BME280;39536;52.198;9.920;2023-04-21T01:13:47;100837.72;;;7.74;100.00
13968;BME280;39536;52.198;9.920;2023-04-21T01:16:15;100838.56;;;7.76;100.00
13968;BME280;39536;52.198;9.920;2023-04-21T01:18:43;100838.47;;;7.81;100.00
13968;BME280;39536;52.198;9.920;2023-04-21T01:21:10;100841.09;;;7.78;100.00
13968;BME280;39536;52.198;9.920;2023-04-21T01:23:38;100830.13;;;7.62;100.00
13968;BME280;39536;52.198;9.920;2023-04-21T01:26:05;100843.13;;;7.59;100.00
13968;BME280;39536;52.198;9.920;2023-04-21T01:28:31;100846.53;;;7.62;100.00
13968;BME280;39536;52.198;9.920;2023-04-21T01:30:58;100851.63;;;7.70;100.00
13968;BME280;39536;52.198;9.920;2023-04-21T01:33:24;100839.31;;;7.81;100.00
13968;BME280;39536;52.198;9.920;2023-04-21T01:35:51;100842.69;;;7.86;100.00
13968;BME280;39536;52.198;9.920;2023-04-21T01:38:18;100839.25;;;7.86;100.00
13968;BME280;39536;52.198;9.920;2023-04-21T01:40:47;100848.81;;;7.82;100.00
13968;BME280;39536;52.198;9.920;2023-04-21T01:43:16;100838.59;;;7.73;100.00
13968;BME280;39536;52.198;9.920;2023-04-21T01:45:43;100843.78;;;7.72;100.00
13968;BME280;39536;52.198;9.920;2023-04-21T01:48:10;100841.44;;;7.58;100.00
13968;BME280;39536;52.198;9.920;2023-04-21T01:50:36;100834.47;;;7.61;100.00
13968;BME280;39536;52.198;9.920;2023-04-21T01:53:03;100832.81;;;7.57;100.00
13968;BME280;39536;52.198;9.920;2023-04-21T01:55:29;100835.34;;;7.59;100.00
13968;BME280;39536;52.198;9.920;2023-04-21T01:57:57;100826.88;;;7.49;100.00
13968;BME280;39536;52.198;9.920;2023-04-21T02:00:23;100829.56;;;7.45;100.00
13968;BME280;39536;52.198;9.920;2023-04-21T02:02:50;100832.94;;;7.47;100.00
13968;BME280;39536;52.198;9.920;2023-04-21T02:05:17;100822.72;;;7.39;100.00
13968;BME280;39536;52.198;9.920;2023-04-21T02:07:43;100814.09;;;7.37;100.00
13968;BME280;39536;52.198;9.920;2023-04-21T02:10:10;100822.66;;;7.42;100.00
13968;BME280;39536;52.198;9.920;2023-04-21T02:12:37;100824.22;;;7.52;100.00
13968;BME280;39536;52.198;9.920;2023-04-21T02:15:06;100823.38;;;7.52;100.00
13968;BME280;39536;52.198;9.920;2023-04-21T02:17:33;100816.41;;;7.55;100.00
13968;BME280;39536;52.198;9.920;2023-04-21T02:20:00;100824.28;;;7.51;100.00
13968;BME280;39536;52.198;9.920;2023-04-21T02:22:27;100818.16;;;7.53;100.00
13968;BME280;39536;52.198;9.920;2023-04-21T02:24:54;100815.47;;;7.61;100.00
13968;BME280;39536;52.198;9.920;2023-04-21T02:27:20;100813.63;;;7.66;100.00
13968;BME280;39536;52.198;9.920;2023-04-21T02:29:46;100810.19;;;7.67;100.00
13968;BME280;39536;52.198;9.920;2023-04-21T02:32:14;100805.09;;;7.59;100.00
13968;BME280;39536;52.198;9.920;2023-04-21T02:34:40;100804.25;;;7.60;100.00
13968;BME280;39536;52.198;9.920;2023-04-21T02:37:07;100805.13;;;7.58;100.00
13968;BME280;39536;52.198;9.920;2023-04-21T02:39:33;100804.19;;;7.62;100.00
13968;BME280;39536;52.198;9.920;2023-04-21T02:42:00;100807.59;;;7.66;100.00
13968;BME280;39536;52.198;9.920;2023-04-21T02:44:26;100817.09;;;7.67;100.00
13968;BME280;39536;52.198;9.920;2023-04-21T02:46:53;100816.16;;;7.71;100.00
13968;BME280;39536;52.198;9.920;2023-04-21T02:49:21;100815.41;;;7.64;100.00
13968;BME280;39536;52.198;9.920;2023-04-21T02:51:47;100812.03;;;7.59;100.00
13968;BME280;39536;52.198;9.920;2023-04-21T02:54:13;100813.81;;;7.55;100.00
13968;BME280;39536;52.198;9.920;2023-04-21T02:56:40;100819.94;;;7.50;100.00
13968;BME280;39536;52.198;9.920;2023-04-21T02:59:06;100813.09;;;7.46;100.00
13968;BME280;39536;52.198;9.920;2023-04-21T03:01:33;100821.72;;;7.46;100.00
13968;BME280;39536;52.198;9.920;2023-04-21T03:03:59;100820.97;;;7.39;100.00
13968;BME280;39536;52.198;9.920;2023-04-21T03:06:27;100818.38;;;7.38;100.00
13968;BME280;39536;52.198;9.920;2023-04-21T03:08:53;100820.94;;;7.43;100.00
13968;BME280;39536;52.198;9.920;2023-04-21T03:11:20;100823.47;;;7.44;100.00
13968;BME280;39536;52.198;9.920;2023-04-21T03:13:47;100822.59;;;7.47;100.00
13968;BME280;39536;52.198;9.920;2023-04-21T03:16:13;100817.44;;;7.44;100.00
13968;BME280;39536;52.198;9.920;2023-04-21T03:18:40;100824.28;;;7.49;100.00
13968;BME280;39536;52.198;9.920;2023-04-21T03:21:06;100826.88;;;7.51;100.00
13968;BME280;39536;52.198;9.920;2023-04-21T03:23:34;100820.59;;;7.62;100.00
13968;BME280;39536;52.198;9.920;2023-04-21T03:26:05;100823.94;;;7.71;100.00
13968;BME280;39536;52.198;9.920;2023-04-21T03:28:31;100830.06;;;7.65;100.00
13968;BME280;39536;52.198;9.920;2023-04-21T03:30:58;100820.44;;;7.73;100.00
13968;BME280;39536;52.198;9.920;2023-04-21T03:33:24;100822.31;;;7.65;100.00
13968;BME280;39536;52.198;9.920;2023-04-21T03:35:51;100825.78;;;7.64;100.00
13968;BME280;39536;52.198;9.920;2023-04-21T03:38:17;100832.19;;;7.40;100.00
13968;BME280;39536;52.198;9.920;2023-04-21T03:40:45;100828.03;;;7.28;100.00
13968;BME280;39536;52.198;9.920;2023-04-21T03:43:11;100837.50;;;7.31;100.00
13968;BME280;39536;52.198;9.920;2023-04-21T03:45:38;100834.91;;;7.31;100.00
13968;BME280;39536;52.198;9.920;2023-04-21T03:48:05;100839.16;;;7.35;100.00
13968;BME280;39536;52.198;9.920;2023-04-21T03:50:31;100845.16;;;7.40;100.00
13968;BME280;39536;52.198;9.920;2023-04-21T03:52:58;100849.41;;;7.44;100.00
13968;BME280;39536;52.198;9.920;2023-04-21T03:55:24;100841.44;;;7.56;100.00
13968;BME280;39536;52.198;9.920;2023-04-21T03:57:52;100843.13;;;7.60;100.00
13968;BME280;39536;52.198;9.920;2023-04-21T04:00:18;100833.56;;;7.62;100.00
13968;BME280;39536;52.198;9.920;2023-04-21T04:02:45;100838.75;;;7.64;100.00
13968;BME280;39536;52.198;9.920;2023-04-21T04:05:11;100838.75;;;7.62;100.00
13968;BME280;39536;52.198;9.920;2023-04-21T04:07:38;100844.84;;;7.60;100.00
13968;BME280;39536;52.198;9.920;2023-04-21T04:10:05;100831.88;;;7.60;100.00
13968;BME280;39536;52.198;9.920;2023-04-21T04:12:31;100842.28;;;7.58;100.00
13968;BME280;39536;52.198;9.920;2023-04-21T04:14:59;100839.75;;;7.54;100.00
13968;BME280;39536;52.198;9.920;2023-04-21T04:17:26;100839.84;;;7.49;100.00
13968;BME280;39536;52.198;9.920;2023-04-21T04:19:53;100832.84;;;7.54;100.00
13968;BME280;39536;52.198;9.920;2023-04-21T04:22:19;100827.94;;;7.36;100.00
13968;BME280;39536;52.198;9.920;2023-04-21T04:24:46;100829.63;;;7.38;100.00
13968;BME280;39536;52.198;9.920;2023-04-21T04:27:12;100821.91;;;7.34;100.00
13968;BME280;39536;52.198;9.920;2023-04-21T04:29:39;100818.56;;;7.26;100.00
13968;BME280;39536;52.198;9.920;2023-04-21T04:32:07;100823.66;;;7.32;100.00
13968;BME280;39536;52.198;9.920;2023-04-21T04:34:35;100821.97;;;7.31;100.00
13968;BME280;39536;52.198;9.920;2023-04-21T04:37:01;100819.41;;;7.29;100.00
13968;BME280;39536;52.198;9.920;2023-04-21T04:39:28;100822.00;;;7.29;100.00
13968;BME280;39536;52.198;9.920;2023-04-21T04:41:55;100817.53;;;7.39;100.00
13968;BME280;39536;52.198;9.920;2023-04-21T04:44:22;100824.50;;;7.35;100.00
13968;BME280;39536;52.198;9.920;2023-04-21T04:46:49;100826.38;;;7.24;100.00
13968;BME280;39536;52.198;9.920;2023-04-21T04:49:18;100824.63;;;7.25;100.00
13968;BME280;39536;52.198;9.920;2023-04-21T04:51:44;100822.91;;;7.27;100.00
13968;BME280;39536;52.198;9.920;2023-04-21T04:54:11;100815.16;;;7.24;100.00
13968;BME280;39536;52.198;9.920;2023-04-21T04:56:37;100824.63;;;7.25;100.00
13968;BME280;39536;52.198;9.920;2023-04-21T04:59:04;100825.53;;;7.24;100.00
13968;BME280;39536;52.198;9.920;2023-04-21T05:01:31;100823.75;;;7.26;100.00
13968;BME280;39536;52.198;9.920;2023-04-21T05:03:57;100822.09;;;7.23;100.00
13968;BME280;39536;52.198;9.920;2023-04-21T05:06:25;100824.50;;;7.35;100.00
13968;BME280;39536;52.198;9.920;2023-04-21T05:08:52;100830.25;;;7.53;100.00
13968;BME280;39536;52.198;9.920;2023-04-21T05:11:19;100827.53;;;7.63;100.00
13968;BME280;39536;52.198;9.920;2023-04-21T05:13:45;100832.44;;;7.80;100.00
13968;BME280;39536;52.198;9.920;2023-04-21T05:16:12;100824.59;;;7.85;100.00
13968;BME280;39536;52.198;9.920;2023-04-21T05:18:38;100833.91;;;7.95;100.00
13968;BME280;39536;52.198;9.920;2023-04-21T05:21:05;100819.03;;;8.05;100.00
13968;BME280;39536;52.198;9.920;2023-04-21T05:23:32;100819.88;;;8.07;100.00
13968;BME280;39536;52.198;9.920;2023-04-21T05:25:59;100827.63;;;8.10;100.00
13968;BME280;39536;52.198;9.920;2023-04-21T05:28:26;100828.25;;;8.21;100.00
13968;BME280;39536;52.198;9.920;2023-04-21T05:30:54;100825.56;;;8.27;100.00
13968;BME280;39536;52.198;9.920;2023-04-21T05:33:20;100828.03;;;8.33;100.00
13968;BME280;39536;52.198;9.920;2023-04-21T05:35:47;100821.06;;;8.39;100.00
13968;BME280;39536;52.198;9.920;2023-04-21T05:38:13;100823.44;;;8.49;100.00
13968;BME280;39536;52.198;9.920;2023-04-21T05:40:41;100818.19;;;8.52;100.00
13968;BME280;39536;52.198;9.920;2023-04-21T05:43:07;100819.66;;;8.66;100.00
13968;BME280;39536;52.198;9.920;2023-04-21T05:45:38;100811.78;;;8.70;100.00
13968;BME280;39536;52.198;9.920;2023-04-21T05:48:04;100814.19;;;8.78;100.00
13968;BME280;39536;52.198;9.920;2023-04-21T05:50:31;100809.88;;;8.78;100.00
13968;BME280;39536;52.198;9.920;2023-04-21T05:52:59;100820.22;;;8.82;100.00
13968;BME280;39536;52.198;9.920;2023-04-21T05:55:26;100814.84;;;8.88;100.00
13968;BME280;39536;52.198;9.920;2023-04-21T05:57:54;100813.00;;;8.94;100.00
13968;BME280;39536;52.198;9.920;2023-04-21T06:00:20;100807.88;;;8.91;100.00
13968;BME280;39536;52.198;9.920;2023-04-21T06:02:47;100814.59;;;9.01;100.00
13968;BME280;39536;52.198;9.920;2023-04-21T06:05:13;100814.38;;;9.11;100.00
13968;BME280;39536;52.198;9.920;2023-04-21T06:07:40;100809.91;;;9.17;100.00
13968;BME280;39536;52.198;9.920;2023-04-21T06:10:07;100816.56;;;9.29;100.00
13968;BME280;39536;52.198;9.920;2023-04-21T06:12:34;100810.41;;;9.33;100.00
13968;BME280;39536;52.198;9.920;2023-04-21T06:15:02;100812.00;;;9.39;100.00
13968;BME280;39536;52.198;9.920;2023-04-21T06:17:29;100799.66;;;9.48;100.00
13968;BME280;39536;52.198;9.920;2023-04-21T06:19:55;100806.47;;;9.53;100.00
13968;BME280;39536;52.198;9.920;2023-04-21T06:22:22;100791.47;;;9.64;100.00
13968;BME280;39536;52.198;9.920;2023-04-21T06:24:49;100792.16;;;9.70;100.00
13968;BME280;39536;52.198;9.920;2023-04-21T06:27:15;100790.31;;;9.76;100.00
13968;BME280;39536;52.198;9.920;2023-04-21T06:29:42;100796.16;;;9.84;100.00
13968;BME280;39536;52.198;9.920;2023-04-21T06:32:10;100797.75;;;9.89;100.00
13968;BME280;39536;52.198;9.920;2023-04-21T06:34:40;100795.84;;;9.96;100.00
13968;BME280;39536;52.198;9.920;2023-04-21T06:37:06;100791.25;;;10.06;100.00
13968;BME280;39536;52.198;9.920;2023-04-21T06:39:33;100794.59;;;10.12;100.00
13968;BME280;39536;52.198;9.920;2023-04-21T06:41:59;100789.97;;;10.22;100.00
13968;BME280;39536;52.198;9.920;2023-04-21T06:44:26;100791.41;;;10.34;100.00
13968;BME280;39536;52.198;9.920;2023-04-21T06:46:53;100782.41;;;10.46;100.00
13968;BME280;39536;52.198;9.920;2023-04-21T06:49:21;100793.38;;;10.57;100.00
13968;BME280;39536;52.198;9.920;2023-04-21T06:51:47;100792.38;;;10.61;100.00
13968;BME280;39536;52.198;9.920;2023-04-21T06:54:14;100791.41;;;10.65;100.00
13968;BME280;39536;52.198;9.920;2023-04-21T06:56:40;100790.50;;;10.66;100.00
13968;BME280;39536;52.198;9.920;2023-04-21T06:59:07;100785.25;;;10.68;100.00
13968;BME280;39536;52.198;9.920;2023-04-21T07:01:33;100785.66;;;10.83;100.00
13968;BME280;39536;52.198;9.920;2023-04-21T07:04:00;100791.41;;;10.95;100.00
13968;BME280;39536;52.198;9.920;2023-04-21T07:06:27;100792.63;;;11.11;100.00
13968;BME280;39536;52.198;9.920;2023-04-21T07:08:54;100786.28;;;11.20;100.00
13968;BME280;39536;52.198;9.920;2023-04-21T07:11:20;100781.63;;;11.29;100.00
13968;BME280;39536;52.198;9.920;2023-04-21T07:13:47;100783.69;;;11.46;100.00
13968;BME280;39536;52.198;9.920;2023-04-21T07:16:13;100779.06;;;11.56;100.00
13968;BME280;39536;52.198;9.920;2023-04-21T07:18:40;100790.81;;;11.68;100.00
13968;BME280;39536;52.198;9.920;2023-04-21T07:21:06;100787.72;;;11.83;100.00
13968;BME280;39536;52.198;9.920;2023-04-21T07:23:34;100786.78;;;11.86;100.00
13968;BME280;39536;52.198;9.920;2023-04-21T07:26:01;100779.34;;;12.00;100.00
13968;BME280;39536;52.198;9.920;2023-04-21T07:28:27;100781.53;;;12.12;100.00
13968;BME280;39536;52.198;9.920;2023-04-21T07:30:54;100776.94;;;12.19;100.00
13968;BME280;39536;52.198;9.920;2023-04-21T07:33:20;100777.72;;;12.21;100.00
13968;BME280;39536;52.198;9.920;2023-04-21T07:35:47;100774.03;;;12.27;100.00
13968;BME280;39536;52.198;9.920;2023-04-21T07:38:13;100779.63;;;12.41;100.00
13968;BME280;39536;52.198;9.920;2023-04-21T07:40:41;100779.41;;;12.47;100.00
13968;BME280;39536;52.198;9.920;2023-04-21T07:43:08;100770.63;;;12.50;100.00
13968;BME280;39536;52.198;9.920;2023-04-21T07:45:34;100776.25;;;12.62;100.00
13968;BME280;39536;52.198;9.920;2023-04-21T07:48:01;100767.22;;;12.71;100.00
13968;BME280;39536;52.198;9.920;2023-04-21T07:50:27;100768.38;;;12.86;100.00
13968;BME280;39536;52.198;9.920;2023-04-21T07:52:54;100768.13;;;12.92;100.00
13968;BME280;39536;52.198;9.920;2023-04-21T07:55:20;100770.75;;;12.92;100.00
13968;BME280;39536;52.198;9.920;2023-04-21T07:57:48;100764.50;;;12.96;100.00
13968;BME280;39536;52.198;9.920;2023-04-21T08:00:15;100755.91;;;13.14;100.00
13968;BME280;39536;52.198;9.920;2023-04-21T08:02:42;100756.38;;;13.26;100.00
13968;BME280;39536;52.198;9.920;2023-04-21T08:05:08;100753.22;;;13.39;100.00
13968;BME280;39536;52.198;9.920;2023-04-21T08:07:35;100739.81;;;13.47;100.00
13968;BME280;39536;52.198;9.920;2023-04-21T08:10:01;100751.06;;;13.49;100.00
13968;BME280;39536;52.198;9.920;2023-04-21T08:12:28;100746.34;;;13.57;100.00
13968;BME280;39536;52.198;9.920;2023-04-21T08:14:56;100742.59;;;13.65;100.00
13968;BME280;39536;52.198;9.920;2023-04-21T08:17:22;100744.81;;;13.74;100.00
13968;BME280;39536;52.198;9.920;2023-04-21T08:19:49;100740.22;;;13.79;100.00
13968;BME280;39536;52.198;9.920;2023-04-21T08:22:15;100745.38;;;14.01;100.00
13968;BME280;39536;52.198;9.920;2023-04-21T08:24:41;100750.78;;;14.17;100.00
13968;BME280;39536;52.198;9.920;2023-04-21T08:27:08;100749.41;;;14.28;100.00
13968;BME280;39536;52.198;9.920;2023-04-21T08:29:40;100749.41;;;14.28;100.00
13968;BME280;39536;52.198;9.920;2023-04-21T08:32:08;100745.66;;;14.34;100.00
13968;BME280;39536;52.198;9.920;2023-04-21T08:34:35;100742.34;;;14.49;100.00
13968;BME280;39536;52.198;9.920;2023-04-21T08:37:01;100745.16;;;14.65;100.00
13968;BME280;39536;52.198;9.920;2023-04-21T08:39:28;100738.66;;;14.74;100.00
13968;BME280;39536;52.198;9.920;2023-04-21T08:41:55;100742.88;;;14.76;100.00
13968;BME280;39536;52.198;9.920;2023-04-21T08:44:21;100736.22;;;14.88;100.00
13968;BME280;39536;52.198;9.920;2023-04-21T08:46:48;100738.47;;;14.96;100.00
13968;BME280;39536;52.198;9.920;2023-04-21T08:49:19;100736.41;;;15.02;100.00
13968;BME280;39536;52.198;9.920;2023-04-21T08:51:46;100737.75;;;15.11;100.00
13968;BME280;39536;52.198;9.920;2023-04-21T08:54:12;100733.44;;;15.28;100.00
13968;BME280;39536;52.198;9.920;2023-04-21T08:56:39;100736.31;;;15.40;100.00
13968;BME280;39536;52.198;9.920;2023-04-21T08:59:06;100728.78;;;15.52;100.00
13968;BME280;39536;52.198;9.920;2023-04-21T09:01:32;100733.88;;;15.55;100.00
13968;BME280;39536;52.198;9.920;2023-04-21T09:04:17;100729.22;;;15.60;100.00
13968;BME280;39536;52.198;9.920;2023-04-21T09:06:44;100735.56;;;15.73;100.00
13968;BME280;39536;52.198;9.920;2023-04-21T09:09:10;100735.09;;;15.82;100.00
13968;BME280;39536;52.198;9.920;2023-04-21T09:11:37;100730.09;;;15.95;100.00
13968;BME280;39536;52.198;9.920;2023-04-21T09:14:03;100737.72;;;16.00;100.00
13968;BME280;39536;52.198;9.920;2023-04-21T09:16:31;100721.53;;;16.07;100.00
13968;BME280;39536;52.198;9.920;2023-04-21T09:18:58;100731.50;;;16.18;100.00
13968;BME280;39536;52.198;9.920;2023-04-21T09:21:27;100739.84;;;16.26;100.00
13968;BME280;39536;52.198;9.920;2023-04-21T09:23:55;100726.59;;;16.28;100.00
13968;BME280;39536;52.198;9.920;2023-04-21T09:26:22;100737.47;;;16.37;100.00
13968;BME280;39536;52.198;9.920;2023-04-21T09:28:50;100725.53;;;16.48;100.00
13968;BME280;39536;52.198;9.920;2023-04-21T09:31:18;100729.94;;;16.63;100.00
13968;BME280;39536;52.198;9.920;2023-04-21T09:33:46;100728.28;;;16.78;100.00
13968;BME280;39536;52.198;9.920;2023-04-21T09:36:19;100727.63;;;16.90;100.00
13968;BME280;39536;52.198;9.920;2023-04-21T09:38:54;100725.59;;;16.95;100.00
13968;BME280;39536;52.198;9.920;2023-04-21T09:41:21;100722.78;;;16.98;100.00
13968;BME280;39536;52.198;9.920;2023-04-21T09:43:48;100718.03;;;17.05;100.00
13968;BME280;39536;52.198;9.920;2023-04-21T09:46:16;100721.81;;;17.15;100.00
13968;BME280;39536;52.198;9.920;2023-04-21T09:48:44;100714.06;;;17.28;100.00
13968;BME280;39536;52.198;9.920;2023-04-21T09:51:12;100715.13;;;17.40;100.00
13968;BME280;39536;52.198;9.920;2023-04-21T09:53:40;100713.28;;;17.42;100.00
13968;BME280;39536;52.198;9.920;2023-04-21T09:56:11;100718.44;;;17.43;100.00
13968;BME280;39536;52.198;9.920;2023-04-21T09:58:40;100710.53;;;17.43;100.00
13968;BME280;39536;52.198;9.920;2023-04-21T10:01:08;100703.88;;;17.52;100.00
13968;BME280;39536;52.198;9.920;2023-04-21T10:03:36;100702.81;;;17.70;100.00
13968;BME280;39536;52.198;9.920;2023-04-21T10:06:04;100697.84;;;17.80;100.00
13968;BME280;39536;52.198;9.920;2023-04-21T10:08:30;100691.28;;;17.87;100.00
13968;BME280;39536;52.198;9.920;2023-04-21T10:10:58;100691.84;;;17.92;100.00
13968;BME280;39536;52.198;9.920;2023-04-21T10:13:26;100690.44;;;18.01;100.00
13968;BME280;39536;52.198;9.920;2023-04-21T10:16:00;100683.47;;;18.14;100.00
13968;BME280;39536;52.198;9.920;2023-04-21T10:18:28;100678.84;;;18.18;100.00
13968;BME280;39536;52.198;9.920;2023-04-21T10:20:56;100687.06;;;18.13;100.00
13968;BME280;39536;52.198;9.920;2023-04-21T10:23:30;100679.41;;;18.23;100.00
13968;BME280;39536;52.198;9.920;2023-04-21T10:26:02;100680.66;;;18.32;100.00
13968;BME280;39536;52.198;9.920;2023-04-21T10:28:40;100668.25;;;18.46;100.00
13968;BME280;39536;52.198;9.920;2023-04-21T10:31:18;100657.56;;;18.62;98.50
13968;BME280;39536;52.198;9.920;2023-04-21T10:34:14;100660.41;;;18.74;94.04
13968;BME280;39536;52.198;9.920;2023-04-21T10:37:17;100652.53;;;18.72;92.35
13968;BME280;39536;52.198;9.920;2023-04-21T10:39:45;100664.78;;;18.87;96.53
13968;BME280;39536;52.198;9.920;2023-04-21T10:42:21;100659.09;;;18.93;95.66
13968;BME280;39536;52.198;9.920;2023-04-21T10:45:00;100642.78;;;19.01;92.11
13968;BME280;39536;52.198;9.920;2023-04-21T10:47:34;100643.28;;;19.06;89.69
13968;BME280;39536;52.198;9.920;2023-04-21T10:50:11;100642.69;;;19.15;86.46
13968;BME280;39536;52.198;9.920;2023-04-21T10:52:38;100628.84;;;19.25;87.33
13968;BME280;39536;52.198;9.920;2023-04-21T10:55:06;100636.38;;;19.31;88.43
13968;BME280;39536;52.198;9.920;2023-04-21T10:57:35;100631.50;;;19.37;86.08
13968;BME280;39536;52.198;9.920;2023-04-21T11:00:04;100643.03;;;19.49;86.79
13968;BME280;39536;52.198;9.920;2023-04-21T11:02:32;100632.81;;;19.57;87.65
13968;BME280;39536;52.198;9.920;2023-04-21T11:04:59;100620.97;;;19.63;81.42
13968;BME280;39536;52.198;9.920;2023-04-21T11:07:26;100630.06;;;19.72;77.08
13968;BME280;39536;52.198;9.920;2023-04-21T11:09:58;100620.25;;;19.74;77.69
13968;BME280;39536;52.198;9.920;2023-04-21T11:12:29;100626.78;;;19.81;80.46
13968;BME280;39536;52.198;9.920;2023-04-21T11:14:55;100625.22;;;19.91;83.07
13968;BME280;39536;52.198;9.920;2023-04-21T11:17:24;100615.91;;;19.86;73.50
13968;BME280;39536;52.198;9.920;2023-04-21T11:19:52;100618.34;;;19.89;75.22
13968;BME280;39536;52.198;9.920;2023-04-21T11:22:20;100620.56;;;19.95;77.11
13968;BME280;39536;52.198;9.920;2023-04-21T11:24:48;100608.59;;;20.02;80.09
13968;BME280;39536;52.198;9.920;2023-04-21T11:27:16;100609.81;;;20.09;75.00
13968;BME280;39536;52.198;9.920;2023-04-21T11:29:43;100596.47;;;20.23;72.25
13968;BME280;39536;52.198;9.920;2023-04-21T11:32:10;100596.31;;;20.38;75.40
13968;BME280;39536;52.198;9.920;2023-04-21T11:34:38;100586.38;;;20.41;71.88
13968;BME280;39536;52.198;9.920;2023-04-21T11:37:06;100584.84;;;20.50;70.58
13968;BME280;39536;52.198;9.920;2023-04-21T11:39:32;100588.78;;;20.44;70.73
13968;BME280;39536;52.198;9.920;2023-04-21T11:41:59;100589.19;;;20.51;68.49
13968;BME280;39536;52.198;9.920;2023-04-21T11:44:31;100576.88;;;20.63;68.12
13968;BME280;39536;52.198;9.920;2023-04-21T11:46:57;100578.56;;;20.64;62.58
13968;BME280;39536;52.198;9.920;2023-04-21T11:49:25;100576.00;;;20.62;61.70
13968;BME280;39536;52.198;9.920;2023-04-21T11:51:55;100573.09;;;20.78;65.50
13968;BME280;39536;52.198;9.920;2023-04-21T11:54:21;100562.59;;;20.76;58.93
13968;BME280;39536;52.198;9.920;2023-04-21T11:56:49;100571.75;;;20.84;58.73
13968;BME280;39536;52.198;9.920;2023-04-21T11:59:17;100572.50;;;20.86;56.22
13968;BME280;39536;52.198;9.920;2023-04-21T12:01:44;100561.69;;;20.89;56.43
13968;BME280;39536;52.198;9.920;2023-04-21T12:04:14;100560.38;;;20.94;54.19
13968;BME280;39536;52.198;9.920;2023-04-21T12:06:42;100553.66;;;21.02;55.03
13968;BME280;39536;52.198;9.920;2023-04-21T12:09:15;100554.47;;;21.02;51.62
13968;BME280;39536;52.198;9.920;2023-04-21T12:11:42;100552.38;;;21.18;47.88
13968;BME280;39536;52.198;9.920;2023-04-21T12:14:13;100540.91;;;21.18;43.56
13968;BME280;39536;52.198;9.920;2023-04-21T12:16:40;100536.84;;;21.25;44.82
13968;BME280;39536;52.198;9.920;2023-04-21T12:19:06;100544.78;;;21.25;42.00
13968;BME280;39536;52.198;9.920;2023-04-21T12:21:36;100533.38;;;21.36;45.46
13968;BME280;39536;52.198;9.920;2023-04-21T12:24:03;100539.78;;;21.56;44.20
13968;BME280;39536;52.198;9.920;2023-04-21T12:26:31;100540.03;;;21.53;44.49
13968;BME280;39536;52.198;9.920;2023-04-21T12:28:57;100535.34;;;21.56;41.97
13968;BME280;39536;52.198;9.920;2023-04-21T12:31:24;100530.38;;;21.63;42.58
13968;BME280;39536;52.198;9.920;2023-04-21T12:33:51;100529.16;;;21.78;42.75
13968;BME280;39536;52.198;9.920;2023-04-21T12:36:17;100534.09;;;21.94;41.69
13968;BME280;39536;52.198;9.920;2023-04-21T12:38:44;100529.66;;;21.72;40.11
13968;BME280;39536;52.198;9.920;2023-04-21T12:41:11;100539.03;;;21.87;43.48
13968;BME280;39536;52.198;9.920;2023-04-21T12:43:38;100534.09;;;21.94;41.85
13968;BME280;39536;52.198;9.920;2023-04-21T12:46:05;100537.91;;;22.01;40.04
13968;BME280;39536;52.198;9.920;2023-04-21T12:48:31;100532.38;;;21.93;42.37